Time;durP1;ratioP1;P1;durP2;ratioP2;P2;SDS_P1;SDS_P2;PMS_P1;PMS_P2;Temp;Humidity;BMP_temperature;BMP_pressure;BME280_temperature;BME280_humidity;BME280_pressure;Samples;Min_cycle;Max_cycle;Signal;HPM_P1;HPM_P2
2023/07/05 00:02:18;;;;;;;8.13;5.72;;;;;;;;;;5053619;28;21645;-66
2023/07/05 00:04:45;;;;;;;8.55;5.68;;;;;;;;;;5034911;28;20037;-66
2023/07/05 00:07:10;;;;;;;8.63;5.55;;;;;;;;;;5042248;28;20778;-65
2023/07/05 00:09:36;;;;;;;10.35;6.03;;;;;;;;;;5060079;28;20036;-66
2023/07/05 00:12:01;;;;;;;7.85;5.47;;;;;;;;;;5052623;28;20033;-66
2023/07/05 00:14:27;;;;;;;9.60;6.43;;;;;;;;;;5046439;28;20119;-65
2023/07/05 00:16:53;;;;;;;10.02;5.28;;;;;;;;;;5041435;28;20033;-65
2023/07/05 00:19:18;;;;;;;8.93;6.32;;;;;;;;;;5032655;28;20123;-65
2023/07/05 00:21:43;;;;;;;8.23;6.00;;;;;;;;;;5061716;28;20919;-65
2023/07/05 00:24:09;;;;;;;8.13;5.43;;;;;;;;;;5046411;28;20037;-65
2023/07/05 00:26:34;;;;;;;8.15;6.00;;;;;;;;;;5048858;28;20040;-65
2023/07/05 00:28:59;;;;;;;7.72;5.20;;;;;;;;;;5048017;28;20115;-65
2023/07/05 00:31:25;;;;;;;7.43;5.60;;;;;;;;;;5049159;28;20064;-66
2023/07/05 00:33:51;;;;;;;9.48;5.07;;;;;;;;;;5041184;28;20095;-66
2023/07/05 00:36:16;;;;;;;9.55;5.80;;;;;;;;;;5052223;28;20032;-65
2023/07/05 00:38:42;;;;;;;9.73;5.32;;;;;;;;;;5055764;28;20032;-66
2023/07/05 00:41:07;;;;;;;8.25;5.70;;;;;;;;;;5047466;28;20086;-65
2023/07/05 00:43:33;;;;;;;8.50;5.22;;;;;;;;;;5056071;28;20041;-65
2023/07/05 00:46:17;;;;;;;7.63;5.28;;;;;;;;;;5056676;28;20029;-66
2023/07/05 00:48:54;;;;;;;8.23;5.80;;;;;;;;;;5016904;28;20049;-66
2023/07/05 00:51:24;;;;;;;8.88;5.22;;;;;;;;;;5044744;28;20092;-65
2023/07/05 00:53:54;;;;;;;8.20;5.53;;;;;;;;;;5058284;28;20036;-65
2023/07/05 00:56:28;;;;;;;8.23;5.60;;;;;;;;;;5060022;28;20781;-65
2023/07/05 00:58:54;;;;;;;8.27;5.60;;;;;;;;;;5034892;28;20143;-66
2023/07/05 01:01:20;;;;;;;8.50;5.32;;;;;;;;;;5050048;28;20546;-65
2023/07/05 01:03:52;;;;;;;9.73;5.20;;;;;;;;;;5055444;28;20185;-64
2023/07/05 01:06:21;;;;;;;6.97;4.95;;;;;;;;;;5062041;28;20041;-66
2023/07/05 01:08:47;;;;;;;8.75;5.07;;;;;;;;;;5044444;28;20124;-65
2023/07/05 01:11:29;;;;;;;10.48;5.18;;;;;;;;;;5017160;28;20645;-66
2023/07/05 01:14:04;;;;;;;6.53;4.72;;;;;;;;;;5047453;28;20467;-65
2023/07/05 01:16:41;;;;;;;7.10;5.45;;;;;;;;;;5056199;28;20508;-64
2023/07/05 01:19:30;;;;;;;9.52;5.28;;;;;;;;;;5059221;28;20043;-64
2023/07/05 01:22:02;;;;;;;8.27;5.28;;;;;;;;;;5034244;28;20073;-66
2023/07/05 01:24:50;;;;;;;8.77;5.07;;;;;;;;;;5042177;28;20052;-66
2023/07/05 01:27:34;;;;;;;7.72;4.63;;;;;;;;;;5057710;28;20174;-65
2023/07/05 01:30:27;;;;;;;8.35;5.10;;;;;;;;;;5056411;28;20512;-66
2023/07/05 01:33:36;;;;;;;8.20;4.78;;;;;;;;;;5015924;28;20433;-65
2023/07/05 01:36:03;;;;;;;8.25;5.03;;;;;;;;;;4979536;28;20161;-65
2023/07/05 01:38:28;;;;;;;9.90;4.65;;;;;;;;;;5041383;28;20044;-65
2023/07/05 01:40:58;;;;;;;7.97;5.13;;;;;;;;;;5043079;28;20049;-66
2023/07/05 01:43:26;;;;;;;9.40;5.75;;;;;;;;;;5044381;28;20098;-65
2023/07/05 01:46:10;;;;;;;7.95;5.45;;;;;;;;;;5052759;28;20036;-65
2023/07/05 01:48:53;;;;;;;8.88;5.30;;;;;;;;;;5051120;28;20040;-66
2023/07/05 01:51:55;;;;;;;8.32;5.00;;;;;;;;;;5053157;28;20115;-65
2023/07/05 01:54:39;;;;;;;7.45;5.18;;;;;;;;;;5029024;28;20038;-65
2023/07/05 01:57:13;;;;;;;7.28;4.90;;;;;;;;;;5049183;28;20032;-65
2023/07/05 01:59:49;;;;;;;9.10;5.65;;;;;;;;;;5038949;28;20408;-65
2023/07/05 02:02:17;;;;;;;7.65;5.10;;;;;;;;;;5044974;28;20055;-65
2023/07/05 02:04:44;;;;;;;8.98;5.13;;;;;;;;;;5015886;28;20046;-65
2023/07/05 02:07:09;;;;;;;8.77;5.60;;;;;;;;;;5046733;28;20032;-65
2023/07/05 02:09:36;;;;;;;7.35;5.25;;;;;;;;;;5050344;28;20036;-67
2023/07/05 02:12:01;;;;;;;9.95;5.53;;;;;;;;;;5034340;28;20538;-67
2023/07/05 02:14:27;;;;;;;11.93;5.55;;;;;;;;;;5051660;28;20037;-67
2023/07/05 02:16:52;;;;;;;10.95;5.75;;;;;;;;;;5034746;28;20087;-67
2023/07/05 02:19:17;;;;;;;8.10;5.57;;;;;;;;;;5044930;28;20048;-66
2023/07/05 02:21:43;;;;;;;7.45;5.30;;;;;;;;;;5058831;28;20551;-66
2023/07/05 02:24:08;;;;;;;8.88;6.10;;;;;;;;;;5047634;28;20127;-67
2023/07/05 02:26:34;;;;;;;7.50;5.82;;;;;;;;;;5037545;28;20033;-66
2023/07/05 02:29:00;;;;;;;8.60;4.82;;;;;;;;;;5039316;28;20123;-67
2023/07/05 02:31:25;;;;;;;9.70;5.75;;;;;;;;;;5028436;28;20041;-66
2023/07/05 02:33:50;;;;;;;8.23;5.88;;;;;;;;;;5054361;23;20107;-67
2023/07/05 02:36:17;;;;;;;8.70;5.75;;;;;;;;;;5012144;28;20030;-66
2023/07/05 02:38:42;;;;;;;8.50;6.40;;;;;;;;;;5007031;28;20037;-66
2023/07/05 02:41:08;;;;;;;9.18;5.90;;;;;;;;;;5011434;28;20049;-66
2023/07/05 02:43:34;;;;;;;10.40;6.70;;;;;;;;;;5012027;28;20099;-66
2023/07/05 02:46:00;;;;;;;8.88;6.13;;;;;;;;;;5003322;28;20509;-66
2023/07/05 02:48:25;;;;;;;9.73;6.10;;;;;;;;;;5008194;28;20037;-66
2023/07/05 02:50:50;;;;;;;9.05;6.70;;;;;;;;;;5006879;28;20085;-66
2023/07/05 02:53:16;;;;;;;8.40;6.28;;;;;;;;;;5005657;28;20112;-66
2023/07/05 02:55:42;;;;;;;10.15;6.30;;;;;;;;;;5024042;28;20048;-66
2023/07/05 02:58:08;;;;;;;9.02;6.65;;;;;;;;;;5015637;28;20061;-66
2023/07/05 03:00:34;;;;;;;10.50;6.97;;;;;;;;;;5003553;28;20092;-67
2023/07/05 03:03:00;;;;;;;9.65;6.13;;;;;;;;;;5015915;28;20061;-66
2023/07/05 03:05:25;;;;;;;8.20;6.20;;;;;;;;;;5012341;28;20115;-66
2023/07/05 03:07:52;;;;;;;10.18;6.45;;;;;;;;;;5006680;28;20037;-65
2023/07/05 03:10:17;;;;;;;8.25;6.35;;;;;;;;;;5015789;28;20120;-66
2023/07/05 03:12:43;;;;;;;10.82;6.70;;;;;;;;;;5006798;28;20149;-66
2023/07/05 03:15:09;;;;;;;9.18;6.32;;;;;;;;;;5000908;28;20043;-66
2023/07/05 03:17:34;;;;;;;12.02;6.65;;;;;;;;;;5023508;28;20509;-66
2023/07/05 03:19:59;;;;;;;12.85;7.55;;;;;;;;;;5019532;28;20097;-67
2023/07/05 03:22:28;;;;;;;12.20;7.55;;;;;;;;;;5008614;28;20691;-66
2023/07/05 03:24:54;;;;;;;10.07;7.38;;;;;;;;;;5031397;28;20044;-66
2023/07/05 03:27:20;;;;;;;9.80;7.38;;;;;;;;;;5008191;28;20048;-65
2023/07/05 03:29:46;;;;;;;9.85;7.63;;;;;;;;;;5024532;28;20065;-65
2023/07/05 03:32:11;;;;;;;9.05;6.43;;;;;;;;;;5015998;28;20064;-66
2023/07/05 03:34:36;;;;;;;10.63;7.25;;;;;;;;;;5016344;28;20034;-66
2023/07/05 03:37:02;;;;;;;11.82;7.80;;;;;;;;;;5016979;28;20037;-66
2023/07/05 03:39:29;;;;;;;10.32;7.00;;;;;;;;;;5025747;28;20048;-65
2023/07/05 03:41:54;;;;;;;10.00;7.13;;;;;;;;;;5008870;28;20405;-65
2023/07/05 03:44:22;;;;;;;11.02;7.47;;;;;;;;;;5014537;28;20037;-65
2023/07/05 03:46:48;;;;;;;11.50;7.57;;;;;;;;;;5014811;28;20037;-64
2023/07/05 03:49:14;;;;;;;10.88;6.50;;;;;;;;;;5019944;28;20033;-66
2023/07/05 03:51:39;;;;;;;10.63;5.90;;;;;;;;;;5024695;28;20560;-65
2023/07/05 03:54:05;;;;;;;8.00;5.70;;;;;;;;;;5015834;28;20048;-64
2023/07/05 03:56:30;;;;;;;8.77;6.03;;;;;;;;;;5000784;28;20037;-66
2023/07/05 03:58:56;;;;;;;8.30;5.05;;;;;;;;;;5014855;28;20490;-68
2023/07/05 04:01:25;;;;;;;8.30;5.47;;;;;;;;;;5016412;28;20520;-68
2023/07/05 04:03:54;;;;;;;9.13;5.78;;;;;;;;;;5007351;28;20477;-66
2023/07/05 04:06:20;;;;;;;8.20;5.40;;;;;;;;;;5015799;28;20044;-65
2023/07/05 04:08:47;;;;;;;9.68;5.97;;;;;;;;;;5002481;28;20111;-65
2023/07/05 04:11:12;;;;;;;10.52;5.75;;;;;;;;;;5016548;28;20038;-65
2023/07/05 04:13:38;;;;;;;9.27;6.20;;;;;;;;;;5020878;28;20041;-67
2023/07/05 04:16:10;;;;;;;7.47;5.28;;;;;;;;;;5012988;28;20033;-66
2023/07/05 04:18:37;;;;;;;7.35;5.10;;;;;;;;;;5008193;28;20064;-66
2023/07/05 04:21:03;;;;;;;8.07;5.10;;;;;;;;;;5002190;28;20042;-66
2023/07/05 04:23:29;;;;;;;9.43;5.47;;;;;;;;;;5012062;28;20050;-66
2023/07/05 04:26:02;;;;;;;7.22;4.97;;;;;;;;;;5020680;28;20388;-66
2023/07/05 04:28:29;;;;;;;8.93;5.18;;;;;;;;;;5013986;28;20040;-66
2023/07/05 04:30:54;;;;;;;7.38;4.60;;;;;;;;;;5011763;28;20091;-66
2023/07/05 04:33:19;;;;;;;7.38;4.80;;;;;;;;;;5014673;28;20490;-67
2023/07/05 04:35:46;;;;;;;7.28;4.97;;;;;;;;;;5007260;28;20564;-66
2023/07/05 04:38:12;;;;;;;8.70;5.72;;;;;;;;;;4995657;28;20692;-67
2023/07/05 04:40:38;;;;;;;5.90;4.15;;;;;;;;;;5011966;28;20132;-66
2023/07/05 04:43:03;;;;;;;7.03;4.97;;;;;;;;;;5023066;28;20033;-66
2023/07/05 04:45:29;;;;;;;6.00;3.70;;;;;;;;;;5015314;28;20049;-66
2023/07/05 04:47:54;;;;;;;6.80;4.40;;;;;;;;;;5010449;28;20049;-66
2023/07/05 04:50:19;;;;;;;7.28;4.20;;;;;;;;;;5000207;28;20136;-66
2023/07/05 04:52:45;;;;;;;7.25;4.68;;;;;;;;;;5011365;28;20991;-66
2023/07/05 04:55:10;;;;;;;9.38;4.53;;;;;;;;;;5004885;28;20097;-66
2023/07/05 04:57:35;;;;;;;6.50;4.30;;;;;;;;;;5005601;28;20045;-66
2023/07/05 05:00:05;;;;;;;6.00;3.47;;;;;;;;;;5010808;28;20501;-66
2023/07/05 05:02:32;;;;;;;5.68;3.50;;;;;;;;;;5007492;28;20041;-66
2023/07/05 05:04:57;;;;;;;6.03;3.72;;;;;;;;;;5007295;28;20688;-66
2023/07/05 05:07:22;;;;;;;7.57;4.35;;;;;;;;;;5014897;28;20039;-66
2023/07/05 05:09:48;;;;;;;7.60;4.25;;;;;;;;;;5013815;28;20071;-66
2023/07/05 05:12:13;;;;;;;5.30;3.25;;;;;;;;;;5006241;28;20046;-66
2023/07/05 05:14:39;;;;;;;6.68;3.95;;;;;;;;;;5003624;28;20060;-67
2023/07/05 05:17:04;;;;;;;5.68;3.25;;;;;;;;;;4998828;28;20053;-66
2023/07/05 05:19:29;;;;;;;5.53;3.85;;;;;;;;;;5024313;28;20044;-66
2023/07/05 05:21:55;;;;;;;6.00;3.33;;;;;;;;;;5014171;28;20030;-67
2023/07/05 05:24:20;;;;;;;8.10;4.38;;;;;;;;;;5021338;28;20078;-67
2023/07/05 05:26:47;;;;;;;5.95;3.33;;;;;;;;;;5013910;28;20100;-69
2023/07/05 05:29:12;;;;;;;4.75;2.85;;;;;;;;;;5025915;28;20867;-66
2023/07/05 05:31:38;;;;;;;4.80;3.13;;;;;;;;;;4997849;28;20037;-67
2023/07/05 05:34:03;;;;;;;5.10;3.30;;;;;;;;;;5017421;28;20041;-66
2023/07/05 05:36:29;;;;;;;4.03;2.30;;;;;;;;;;5028708;28;20032;-66
2023/07/05 05:38:54;;;;;;;4.65;2.90;;;;;;;;;;5018423;28;20022;-68
2023/07/05 05:41:20;;;;;;;6.35;3.25;;;;;;;;;;5015758;28;20037;-67
2023/07/05 05:43:45;;;;;;;4.35;2.80;;;;;;;;;;5010210;28;20033;-67
2023/07/05 05:46:11;;;;;;;4.72;3.20;;;;;;;;;;5015097;28;20036;-67
2023/07/05 05:48:37;;;;;;;5.18;3.22;;;;;;;;;;5019362;28;20119;-66
2023/07/05 05:51:02;;;;;;;3.58;2.13;;;;;;;;;;5023773;28;20027;-66
2023/07/05 05:53:28;;;;;;;4.53;2.65;;;;;;;;;;5027907;28;20071;-66
2023/07/05 05:55:56;;;;;;;5.40;3.15;;;;;;;;;;5016585;28;20607;-66
2023/07/05 05:58:23;;;;;;;4.65;3.30;;;;;;;;;;5009037;28;20905;-67
2023/07/05 06:00:48;;;;;;;4.85;3.08;;;;;;;;;;5014410;28;20111;-67
2023/07/05 06:03:14;;;;;;;4.90;2.60;;;;;;;;;;5029539;28;20046;-67
2023/07/05 06:05:41;;;;;;;4.25;2.70;;;;;;;;;;5021417;28;20064;-66
2023/07/05 06:08:07;;;;;;;6.00;2.67;;;;;;;;;;5020404;28;20056;-67
2023/07/05 06:10:32;;;;;;;4.10;2.35;;;;;;;;;;5022431;28;20045;-66
2023/07/05 06:12:57;;;;;;;3.90;2.20;;;;;;;;;;5027923;28;20041;-66
2023/07/05 06:15:23;;;;;;;3.35;2.17;;;;;;;;;;5032802;28;20044;-66
2023/07/05 06:17:48;;;;;;;4.00;2.17;;;;;;;;;;5002294;28;20052;-66
2023/07/05 06:20:17;;;;;;;4.32;3.10;;;;;;;;;;5013858;28;20497;-67
2023/07/05 06:22:43;;;;;;;4.45;2.70;;;;;;;;;;5015312;28;20032;-67
2023/07/05 06:25:12;;;;;;;3.88;2.30;;;;;;;;;;5029060;28;20029;-67
2023/07/05 06:27:38;;;;;;;3.60;2.00;;;;;;;;;;5020735;28;20017;-66
2023/07/05 06:30:04;;;;;;;5.32;2.25;;;;;;;;;;5011907;28;20121;-66
2023/07/05 06:32:32;;;;;;;4.32;2.03;;;;;;;;;;5016976;28;20025;-67
2023/07/05 06:34:57;;;;;;;3.35;1.90;;;;;;;;;;4992304;28;20037;-66
2023/07/05 06:37:23;;;;;;;3.50;1.90;;;;;;;;;;5009635;28;20033;-67
2023/07/05 06:39:48;;;;;;;2.53;1.52;;;;;;;;;;5016005;28;20060;-67
2023/07/05 06:42:13;;;;;;;3.13;2.00;;;;;;;;;;5019332;28;20032;-66
2023/07/05 06:44:39;;;;;;;3.20;1.83;;;;;;;;;;5016185;28;20512;-67
2023/07/05 06:47:04;;;;;;;3.38;1.75;;;;;;;;;;5003941;28;20026;-67
2023/07/05 06:49:31;;;;;;;2.90;1.75;;;;;;;;;;5020136;28;20035;-66
2023/07/05 06:51:56;;;;;;;3.40;1.88;;;;;;;;;;5019915;28;20060;-66
2023/07/05 06:54:22;;;;;;;3.15;1.90;;;;;;;;;;5013978;28;20065;-66
2023/07/05 06:56:47;;;;;;;3.75;2.00;;;;;;;;;;5020975;28;20024;-67
2023/07/05 06:59:12;;;;;;;3.03;1.65;;;;;;;;;;5016958;28;20037;-67
2023/07/05 07:01:38;;;;;;;5.53;1.85;;;;;;;;;;5019941;28;20108;-67
2023/07/05 07:04:07;;;;;;;3.47;1.52;;;;;;;;;;5019871;28;20029;-67
2023/07/05 07:06:33;;;;;;;4.60;1.77;;;;;;;;;;5017546;28;20053;-66
2023/07/05 07:09:01;;;;;;;3.15;1.50;;;;;;;;;;5025629;28;20025;-66
2023/07/05 07:11:26;;;;;;;3.80;1.80;;;;;;;;;;5015645;28;20029;-67
2023/07/05 07:13:52;;;;;;;3.88;1.90;;;;;;;;;;5015143;28;20029;-66
2023/07/05 07:16:17;;;;;;;2.95;1.80;;;;;;;;;;5015926;28;20389;-66
2023/07/05 07:18:48;;;;;;;3.15;1.67;;;;;;;;;;5016531;28;20025;-67
2023/07/05 07:21:14;;;;;;;3.33;1.52;;;;;;;;;;5018145;28;20044;-67
2023/07/05 07:23:40;;;;;;;3.13;1.80;;;;;;;;;;5018649;28;20026;-67
2023/07/05 07:26:11;;;;;;;3.92;1.95;;;;;;;;;;5016542;28;20124;-66
2023/07/05 07:28:36;;;;;;;;;;;;;;;;;;5018170;28;20490;-66
2023/07/05 07:31:14;;;;;;;3.47;1.60;;;;;;;;;;4997699;28;20001;-66
2023/07/05 07:33:39;;;;;;;4.82;1.80;;;;;;;;;;5015827;28;20165;-67
2023/07/05 07:36:10;;;;;;;3.30;1.65;;;;;;;;;;5020400;28;20565;-67
2023/07/05 07:38:35;;;;;;;3.47;1.67;;;;;;;;;;5020510;28;20026;-67
2023/07/05 07:41:00;;;;;;;3.40;1.70;;;;;;;;;;5017225;28;20265;-68
2023/07/05 07:43:26;;;;;;;3.35;1.88;;;;;;;;;;5021339;28;20030;-67
2023/07/05 07:45:51;;;;;;;4.07;2.08;;;;;;;;;;5010961;28;20025;-67
2023/07/05 07:48:17;;;;;;;3.05;1.70;;;;;;;;;;5017893;28;20034;-67
2023/07/05 07:50:48;;;;;;;2.33;1.27;;;;;;;;;;5001040;28;20018;-67
2023/07/05 07:53:14;;;;;;;2.20;1.63;;;;;;;;;;5000144;28;20032;-67
2023/07/05 07:55:39;;;;;;;2.15;1.23;;;;;;;;;;5023279;28;20017;-67
2023/07/05 07:58:05;;;;;;;3.22;1.70;;;;;;;;;;5017559;28;20958;-67
2023/07/05 08:00:31;;;;;;;2.55;1.67;;;;;;;;;;5016206;28;20025;-68
2023/07/05 08:02:56;;;;;;;3.00;1.63;;;;;;;;;;5020344;28;20025;-67
2023/07/05 08:05:23;;;;;;;2.53;1.63;;;;;;;;;;5018706;28;20024;-68
2023/07/05 08:07:49;;;;;;;2.75;1.88;;;;;;;;;;5002973;28;20030;-67
2023/07/05 08:10:15;;;;;;;3.95;1.55;;;;;;;;;;5017523;28;20033;-67
2023/07/05 08:12:40;;;;;;;2.75;1.42;;;;;;;;;;5017830;28;20034;-67
2023/07/05 08:15:06;;;;;;;3.85;1.83;;;;;;;;;;5021487;28;20040;-67
2023/07/05 08:17:31;;;;;;;2.22;1.48;;;;;;;;;;5016865;28;20026;-68
2023/07/05 08:19:57;;;;;;;2.38;1.40;;;;;;;;;;5000527;28;20139;-67
2023/07/05 08:22:23;;;;;;;3.40;1.92;;;;;;;;;;5013385;28;20040;-67
2023/07/05 08:24:49;;;;;;;2.30;1.50;;;;;;;;;;5021608;28;20025;-67
2023/07/05 08:27:14;;;;;;;3.10;1.52;;;;;;;;;;5018901;28;20487;-68
2023/07/05 08:29:41;;;;;;;4.43;1.95;;;;;;;;;;5017385;28;20030;-67
2023/07/05 08:32:07;;;;;;;4.65;1.60;;;;;;;;;;5015282;28;20025;-68
2023/07/05 08:34:32;;;;;;;2.53;1.60;;;;;;;;;;5002611;28;20078;-67
2023/07/05 08:36:58;;;;;;;2.28;1.40;;;;;;;;;;5014619;28;20701;-67
2023/07/05 08:39:23;;;;;;;2.38;1.20;;;;;;;;;;5017326;28;20066;-66
2023/07/05 08:42:00;;;;;;;2.28;1.50;;;;;;;;;;5025419;23;20045;-64
2023/07/05 08:44:41;;;;;;;2.58;1.55;;;;;;;;;;5014755;28;20099;-66
2023/07/05 08:47:12;;;;;;;2.88;1.52;;;;;;;;;;5016288;28;20051;-65
2023/07/05 08:49:45;;;;;;;2.45;1.55;;;;;;;;;;5010764;28;20034;-67
2023/07/05 08:52:42;;;;;;;3.05;1.48;;;;;;;;;;5017141;28;20520;-66
2023/07/05 08:55:13;;;;;;;2.97;1.45;;;;;;;;;;5010765;28;20037;-66
2023/07/05 08:57:44;;;;;;;3.55;2.00;;;;;;;;;;5013315;28;20124;-66
2023/07/05 09:00:18;;;;;;;;;;;;;;;;;;5014072;28;20630;-64
2023/07/05 09:02:43;;;;;;;3.38;1.75;;;;;;;;;;5015539;28;19925;-65
2023/07/05 09:05:18;;;;;;;4.25;2.00;;;;;;;;;;5013573;28;20033;-66
2023/07/05 09:08:07;;;;;;;4.03;2.00;;;;;;;;;;5018410;28;20025;-66
2023/07/05 09:10:47;;;;;;;5.18;2.08;;;;;;;;;;5011529;28;20025;-65
2023/07/05 09:13:22;;;;;;;3.40;2.08;;;;;;;;;;5014852;28;20017;-65
2023/07/05 09:16:16;;;;;;;4.10;2.10;;;;;;;;;;5008026;28;20444;-64
2023/07/05 09:19:05;;;;;;;4.45;2.10;;;;;;;;;;5016909;28;20064;-64
2023/07/05 09:21:30;;;;;;;3.28;1.77;;;;;;;;;;5016069;28;20344;-67
2023/07/05 09:24:30;;;;;;;3.78;2.30;;;;;;;;;;5007580;28;20034;-67
2023/07/05 09:27:01;;;;;;;3.97;2.00;;;;;;;;;;5012166;28;20037;-65
2023/07/05 09:29:41;;;;;;;2.35;1.40;;;;;;;;;;5018815;28;20040;-65
2023/07/05 09:32:17;;;;;;;3.53;2.13;;;;;;;;;;5011819;28;20037;-65
2023/07/05 09:34:48;;;;;;;3.88;2.08;;;;;;;;;;5013216;28;20033;-64
2023/07/05 09:37:13;;;;;;;3.70;2.10;;;;;;;;;;5011547;28;20193;-65
2023/07/05 09:39:49;;;;;;;5.28;2.30;;;;;;;;;;5009327;28;20145;-65
2023/07/05 09:42:25;;;;;;;3.58;1.95;;;;;;;;;;5016359;28;20139;-65
2023/07/05 09:44:50;;;;;;;3.40;2.15;;;;;;;;;;5020210;28;20049;-66
2023/07/05 09:47:16;;;;;;;3.83;1.85;;;;;;;;;;5015524;28;20056;-64
2023/07/05 09:49:41;;;;;;;4.18;1.77;;;;;;;;;;5014252;28;20022;-66
2023/07/05 09:52:12;;;;;;;4.03;2.10;;;;;;;;;;5013141;28;20443;-65
2023/07/05 09:54:38;;;;;;;3.05;1.75;;;;;;;;;;5015483;28;20663;-65
2023/07/05 09:57:09;;;;;;;4.97;2.00;;;;;;;;;;5021138;28;20493;-66
2023/07/05 09:59:36;;;;;;;6.45;2.25;;;;;;;;;;5020470;28;20029;-65
2023/07/05 10:02:14;;;;;;;6.45;2.33;;;;;;;;;;5017496;28;20862;-65
2023/07/05 10:05:13;;;;;;;3.70;1.98;;;;;;;;;;5016614;28;20548;-66
2023/07/05 10:08:00;;;;;;;6.93;2.05;;;;;;;;;;5016243;28;20497;-67
2023/07/05 10:10:40;;;;;;;4.93;1.88;;;;;;;;;;5018999;28;20053;-64
2023/07/05 10:13:19;;;;;;;3.47;1.85;;;;;;;;;;5020580;28;20018;-65
2023/07/05 10:15:50;;;;;;;4.32;1.67;;;;;;;;;;5021588;28;20394;-66
2023/07/05 10:18:28;;;;;;;2.92;1.60;;;;;;;;;;5017490;28;20489;-65
2023/07/05 10:20:57;;;;;;;3.35;1.83;;;;;;;;;;5010439;28;20044;-65
2023/07/05 10:23:23;;;;;;;3.40;1.48;;;;;;;;;;5013502;28;20503;-67
2023/07/05 10:25:51;;;;;;;2.50;1.60;;;;;;;;;;5016565;28;20045;-65
2023/07/05 10:28:21;;;;;;;4.70;1.90;;;;;;;;;;5021514;28;20052;-65
2023/07/05 10:30:52;;;;;;;3.28;1.80;;;;;;;;;;5011717;28;20036;-66
2023/07/05 10:33:36;;;;;;;4.78;1.67;;;;;;;;;;5010688;28;20022;-65
2023/07/05 10:36:04;;;;;;;5.70;1.58;;;;;;;;;;5013394;28;20025;-65
2023/07/05 10:38:47;;;;;;;4.70;2.00;;;;;;;;;;5019808;28;20060;-65
2023/07/05 10:41:18;;;;;;;6.97;1.88;;;;;;;;;;5014971;28;20026;-65
2023/07/05 10:43:52;;;;;;;3.70;1.90;;;;;;;;;;5015373;28;20034;-66
2023/07/05 10:46:21;;;;;;;5.95;1.75;;;;;;;;;;5020109;28;20022;-66
2023/07/05 10:48:48;;;;;;;6.28;2.20;;;;;;;;;;5016939;28;20045;-64
2023/07/05 10:51:19;;;;;;;3.65;2.30;;;;;;;;;;5012409;28;20061;-66
2023/07/05 10:53:55;;;;;;;2.53;1.50;;;;;;;;;;5014097;28;20039;-65
2023/07/05 10:56:24;;;;;;;4.18;1.95;;;;;;;;;;5013287;28;20029;-65
2023/07/05 10:58:58;;;;;;;3.53;1.90;;;;;;;;;;5011809;28;20018;-65
2023/07/05 11:01:57;;;;;;;3.72;1.73;;;;;;;;;;5010848;28;20470;-65
2023/07/05 11:04:29;;;;;;;3.25;1.60;;;;;;;;;;4998677;28;20552;-65
2023/07/05 11:07:02;;;;;;;3.92;1.65;;;;;;;;;;5015904;28;20080;-65
2023/07/05 11:09:30;;;;;;;5.43;1.60;;;;;;;;;;5018032;28;20018;-66
2023/07/05 11:11:59;;;;;;;2.45;1.30;;;;;;;;;;5012138;28;20041;-66
2023/07/05 11:14:28;;;;;;;2.00;1.23;;;;;;;;;;5015943;28;20025;-65
2023/07/05 11:16:55;;;;;;;2.97;1.63;;;;;;;;;;5015330;28;20528;-65
2023/07/05 11:19:30;;;;;;;2.33;1.10;;;;;;;;;;5016775;28;20033;-66
2023/07/05 11:21:56;;;;;;;2.55;1.10;;;;;;;;;;5011832;28;20111;-66
2023/07/05 11:24:30;;;;;;;2.60;1.10;;;;;;;;;;5018312;28;20025;-67
2023/07/05 11:26:57;;;;;;;1.42;0.88;;;;;;;;;;5015845;28;20120;-66
2023/07/05 11:29:25;;;;;;;3.20;1.23;;;;;;;;;;5017711;28;20031;-65
2023/07/05 11:31:53;;;;;;;2.38;1.05;;;;;;;;;;5010845;28;20037;-65
2023/07/05 11:34:25;;;;;;;3.13;1.27;;;;;;;;;;5019697;28;20048;-65
2023/07/05 11:37:13;;;;;;;3.97;1.23;;;;;;;;;;5010865;28;20025;-65
2023/07/05 11:39:43;;;;;;;3.15;1.23;;;;;;;;;;5014481;28;20026;-65
2023/07/05 11:42:14;;;;;;;3.22;1.48;;;;;;;;;;5018171;28;20108;-65
2023/07/05 11:44:48;;;;;;;2.33;1.13;;;;;;;;;;5016684;28;20037;-65
2023/07/05 11:47:22;;;;;;;2.63;1.10;;;;;;;;;;5011465;28;20371;-65
2023/07/05 11:50:09;;;;;;;1.23;0.77;;;;;;;;;;5012908;28;20495;-65
2023/07/05 11:52:47;;;;;;;1.85;1.00;;;;;;;;;;5021592;28;20055;-65
2023/07/05 11:55:26;;;;;;;4.07;1.35;;;;;;;;;;5020805;28;20117;-65
2023/07/05 11:57:54;;;;;;;2.30;1.15;;;;;;;;;;5012801;28;20485;-65
2023/07/05 12:00:34;;;;;;;3.83;1.30;;;;;;;;;;5013559;28;20029;-65
2023/07/05 12:03:06;;;;;;;3.70;1.27;;;;;;;;;;5016416;28;20036;-65
2023/07/05 12:05:33;;;;;;;3.42;1.20;;;;;;;;;;5014165;28;20458;-65
2023/07/05 12:08:07;;;;;;;2.90;1.10;;;;;;;;;;5015727;28;20513;-65
2023/07/05 12:10:35;;;;;;;3.80;1.20;;;;;;;;;;5017335;28;20121;-65
2023/07/05 12:13:03;;;;;;;3.80;1.20;;;;;;;;;;5012855;28;20060;-65
2023/07/05 12:15:28;;;;;;;3.70;1.20;;;;;;;;;;5014748;28;20124;-65
2023/07/05 12:17:54;;;;;;;3.13;1.20;;;;;;;;;;5013683;28;20124;-65
2023/07/05 12:20:31;;;;;;;1.80;0.90;;;;;;;;;;5017293;28;20021;-65
2023/07/05 12:22:58;;;;;;;1.98;0.90;;;;;;;;;;5013938;28;20437;-65
2023/07/05 12:25:24;;;;;;;2.13;1.13;;;;;;;;;;5014226;28;20133;-65
2023/07/05 12:27:51;;;;;;;3.15;1.33;;;;;;;;;;5010470;28;20522;-65
2023/07/05 12:30:19;;;;;;;1.65;1.15;;;;;;;;;;5016996;28;20112;-65
2023/07/05 12:32:53;;;;;;;2.45;1.20;;;;;;;;;;5018772;28;20021;-65
2023/07/05 12:35:22;;;;;;;2.80;1.13;;;;;;;;;;5009879;28;20025;-65
2023/07/05 12:37:52;;;;;;;2.47;1.00;;;;;;;;;;5015872;28;20021;-65
2023/07/05 12:40:33;;;;;;;1.83;1.00;;;;;;;;;;5016946;28;20029;-64
2023/07/05 12:43:05;;;;;;;2.75;1.10;;;;;;;;;;5013746;28;20046;-65
2023/07/05 12:45:36;;;;;;;3.33;1.00;;;;;;;;;;5005627;28;20018;-64
2023/07/05 12:48:25;;;;;;;4.05;1.50;;;;;;;;;;5014796;28;20026;-67
2023/07/05 12:51:12;;;;;;;1.88;1.00;;;;;;;;;;5013641;28;20021;-66
2023/07/05 12:53:38;;;;;;;3.00;1.00;;;;;;;;;;5013787;28;20113;-66
2023/07/05 12:56:08;;;;;;;1.83;1.00;;;;;;;;;;5014878;28;20413;-64
2023/07/05 12:58:35;;;;;;;4.10;1.10;;;;;;;;;;5015218;28;20421;-64
2023/07/05 13:01:00;;;;;;;2.38;0.85;;;;;;;;;;5013628;28;20037;-65
2023/07/05 13:03:31;;;;;;;2.38;1.13;;;;;;;;;;5017793;28;20025;-66
2023/07/05 13:05:57;;;;;;;2.67;1.00;;;;;;;;;;5011621;28;20109;-64
2023/07/05 13:08:24;;;;;;;2.60;0.93;;;;;;;;;;5011521;28;20029;-66
2023/07/05 13:10:51;;;;;;;1.42;0.85;;;;;;;;;;5012217;28;20056;-65
2023/07/05 13:13:25;;;;;;;2.45;1.10;;;;;;;;;;5013576;28;20097;-65
2023/07/05 13:15:51;;;;;;;2.00;1.02;;;;;;;;;;5007874;28;20022;-65
2023/07/05 13:18:31;;;;;;;2.83;1.02;;;;;;;;;;5012690;28;20099;-66
2023/07/05 13:21:15;;;;;;;3.03;1.00;;;;;;;;;;5017683;28;20169;-66
2023/07/05 13:23:45;;;;;;;2.67;1.13;;;;;;;;;;5016462;28;20409;-66
2023/07/05 13:26:26;;;;;;;2.55;1.20;;;;;;;;;;5013520;28;20374;-66
2023/07/05 13:28:56;;;;;;;1.73;0.82;;;;;;;;;;5011274;28;20156;-66
2023/07/05 13:31:22;;;;;;;3.03;0.90;;;;;;;;;;5013620;28;20044;-65
2023/07/05 13:33:47;;;;;;;3.50;1.38;;;;;;;;;;5010749;28;20521;-66
2023/07/05 13:36:12;;;;;;;2.30;1.00;;;;;;;;;;5012382;28;20035;-66
2023/07/05 13:38:38;;;;;;;3.33;1.10;;;;;;;;;;5010756;28;20034;-65
2023/07/05 13:41:05;;;;;;;1.92;1.05;;;;;;;;;;5010503;28;20033;-66
2023/07/05 13:43:31;;;;;;;3.47;1.38;;;;;;;;;;5010936;28;20018;-65
2023/07/05 13:45:57;;;;;;;2.47;1.02;;;;;;;;;;5014041;28;20057;-66
2023/07/05 13:48:23;;;;;;;2.03;1.08;;;;;;;;;;5015474;28;20482;-66
2023/07/05 13:50:49;;;;;;;2.85;0.98;;;;;;;;;;5014292;28;20551;-67
2023/07/05 13:53:20;;;;;;;3.58;1.20;;;;;;;;;;5014382;28;20037;-66
2023/07/05 13:55:48;;;;;;;3.33;1.48;;;;;;;;;;5015906;28;20033;-66
2023/07/05 13:58:14;;;;;;;3.17;1.05;;;;;;;;;;5015641;28;20036;-66
2023/07/05 14:00:41;;;;;;;2.75;1.30;;;;;;;;;;5016105;28;20156;-66
2023/07/05 14:03:06;;;;;;;2.22;1.55;;;;;;;;;;5009335;28;20046;-66
2023/07/05 14:05:32;;;;;;;2.05;1.05;;;;;;;;;;5011180;28;20025;-66
2023/07/05 14:08:03;;;;;;;5.95;1.17;;;;;;;;;;5013107;28;20030;-66
2023/07/05 14:10:29;;;;;;;5.03;1.20;;;;;;;;;;5013412;28;20474;-66
2023/07/05 14:12:55;;;;;;;3.42;1.20;;;;;;;;;;4999274;28;20029;-66
2023/07/05 14:15:29;;;;;;;4.63;0.98;;;;;;;;;;5014151;28;20033;-66
2023/07/05 14:17:55;;;;;;;3.88;1.10;;;;;;;;;;5010101;28;20036;-66
2023/07/05 14:20:20;;;;;;;2.42;1.05;;;;;;;;;;5012006;28;20030;-66
2023/07/05 14:22:46;;;;;;;2.70;0.90;;;;;;;;;;5012160;28;20060;-66
2023/07/05 14:25:21;;;;;;;1.27;0.90;;;;;;;;;;5009812;28;20108;-66
2023/07/05 14:27:46;;;;;;;2.55;1.15;;;;;;;;;;5014668;28;20351;-66
2023/07/05 14:30:12;;;;;;;2.70;1.25;;;;;;;;;;5018167;28;20048;-66
2023/07/05 14:32:39;;;;;;;2.78;1.30;;;;;;;;;;5016151;28;20522;-66
2023/07/05 14:35:16;;;;;;;3.75;1.38;;;;;;;;;;5008362;28;20037;-66
2023/07/05 14:37:49;;;;;;;2.10;1.02;;;;;;;;;;5014230;28;20356;-66
2023/07/05 14:40:16;;;;;;;2.55;1.17;;;;;;;;;;5018901;28;20021;-65
2023/07/05 14:42:42;;;;;;;3.58;1.38;;;;;;;;;;5006988;28;20065;-66
2023/07/05 14:45:14;;;;;;;3.00;1.13;;;;;;;;;;5018409;28;20053;-66
2023/07/05 14:47:39;;;;;;;3.08;1.33;;;;;;;;;;5013291;28;20029;-66
2023/07/05 14:50:05;;;;;;;3.03;1.35;;;;;;;;;;5021423;28;20024;-65
2023/07/05 14:52:30;;;;;;;2.55;1.20;;;;;;;;;;5015626;28;20378;-65
2023/07/05 14:54:55;;;;;;;2.80;1.52;;;;;;;;;;5016941;28;20120;-65
2023/07/05 14:57:21;;;;;;;3.67;1.40;;;;;;;;;;5014676;28;20052;-65